sensor_id;sensor_type;location;lat;lon;timestamp;P1;durP1;ratioP1;P2;durP2;ratioP2
67595;SDS011;54410;48.694;8.934;2023-07-13T00:01:34;3.83;;;2.30;;
67595;SDS011;54410;48.694;8.934;2023-07-13T00:04:03;3.22;;;2.60;;
67595;SDS011;54410;48.694;8.934;2023-07-13T00:06:29;2.28;;;2.03;;
67595;SDS011;54410;48.694;8.934;2023-07-13T00:08:58;3.10;;;2.00;;
67595;SDS011;54410;48.694;8.934;2023-07-13T00:11:24;2.58;;;2.38;;
67595;SDS011;54410;48.694;8.934;2023-07-13T00:13:50;3.33;;;2.15;;
67595;SDS011;54410;48.694;8.934;2023-07-13T00:16:19;2.78;;;2.05;;
67595;SDS011;54410;48.694;8.934;2023-07-13T00:18:45;2.13;;;2.03;;
67595;SDS011;54410;48.694;8.934;2023-07-13T00:21:11;3.72;;;1.98;;
67595;SDS011;54410;48.694;8.934;2023-07-13T00:23:39;2.10;;;1.90;;
67595;SDS011;54410;48.694;8.934;2023-07-13T00:26:07;2.53;;;2.00;;
67595;SDS011;54410;48.694;8.934;2023-07-13T00:28:34;2.28;;;1.88;;
67595;SDS011;54410;48.694;8.934;2023-07-13T00:31:00;2.45;;;2.25;;
67595;SDS011;54410;48.694;8.934;2023-07-13T00:33:27;4.25;;;2.40;;
67595;SDS011;54410;48.694;8.934;2023-07-13T00:35:54;1.90;;;1.80;;
67595;SDS011;54410;48.694;8.934;2023-07-13T00:38:20;5.65;;;2.03;;
67595;SDS011;54410;48.694;8.934;2023-07-13T00:40:46;2.40;;;2.10;;
67595;SDS011;54410;48.694;8.934;2023-07-13T00:43:17;3.03;;;1.95;;
67595;SDS011;54410;48.694;8.934;2023-07-13T00:48:13;3.28;;;2.08;;
67595;SDS011;54410;48.694;8.934;2023-07-13T00:50:48;1.92;;;1.80;;
67595;SDS011;54410;48.694;8.934;2023-07-13T00:53:15;3.65;;;2.00;;
67595;SDS011;54410;48.694;8.934;2023-07-13T00:55:41;2.88;;;2.22;;
67595;SDS011;54410;48.694;8.934;2023-07-13T00:58:07;2.95;;;2.05;;
67595;SDS011;54410;48.694;8.934;2023-07-13T01:00:34;2.20;;;2.10;;
67595;SDS011;54410;48.694;8.934;2023-07-13T01:03:01;4.10;;;2.28;;
67595;SDS011;54410;48.694;8.934;2023-07-13T01:05:30;6.15;;;2.00;;
67595;SDS011;54410;48.694;8.934;2023-07-13T01:07:57;3.72;;;2.13;;
67595;SDS011;54410;48.694;8.934;2023-07-13T01:10:23;2.08;;;1.98;;
67595;SDS011;54410;48.694;8.934;2023-07-13T01:12:49;2.58;;;2.38;;
67595;SDS011;54410;48.694;8.934;2023-07-13T01:15:49;2.25;;;2.15;;
67595;SDS011;54410;48.694;8.934;2023-07-13T01:18:19;4.90;;;2.28;;
67595;SDS011;54410;48.694;8.934;2023-07-13T01:21:00;2.28;;;2.08;;
67595;SDS011;54410;48.694;8.934;2023-07-13T01:23:27;3.60;;;2.00;;
67595;SDS011;54410;48.694;8.934;2023-07-13T01:25:53;2.47;;;2.38;;
67595;SDS011;54410;48.694;8.934;2023-07-13T01:28:20;2.85;;;2.15;;
67595;SDS011;54410;48.694;8.934;2023-07-13T01:30:46;1.95;;;1.85;;
67595;SDS011;54410;48.694;8.934;2023-07-13T01:33:13;2.33;;;2.20;;
67595;SDS011;54410;48.694;8.934;2023-07-13T01:35:41;2.30;;;2.10;;
67595;SDS011;54410;48.694;8.934;2023-07-13T01:38:08;2.33;;;2.10;;
67595;SDS011;54410;48.694;8.934;2023-07-13T01:40:36;3.55;;;2.33;;
67595;SDS011;54410;48.694;8.934;2023-07-13T01:43:02;6.05;;;2.85;;
67595;SDS011;54410;48.694;8.934;2023-07-13T01:45:28;4.25;;;2.20;;
67595;SDS011;54410;48.694;8.934;2023-07-13T01:47:54;2.95;;;2.00;;
67595;SDS011;54410;48.694;8.934;2023-07-13T01:50:20;2.60;;;2.08;;
67595;SDS011;54410;48.694;8.934;2023-07-13T01:52:46;3.45;;;2.35;;
67595;SDS011;54410;48.694;8.934;2023-07-13T01:55:12;2.47;;;2.28;;
67595;SDS011;54410;48.694;8.934;2023-07-13T01:57:38;2.58;;;2.40;;
67595;SDS011;54410;48.694;8.934;2023-07-13T02:00:05;2.25;;;2.08;;
67595;SDS011;54410;48.694;8.934;2023-07-13T02:02:32;2.30;;;2.13;;
67595;SDS011;54410;48.694;8.934;2023-07-13T02:04:57;2.65;;;2.20;;
67595;SDS011;54410;48.694;8.934;2023-07-13T02:07:23;2.60;;;2.50;;
67595;SDS011;54410;48.694;8.934;2023-07-13T02:09:49;3.08;;;2.47;;
67595;SDS011;54410;48.694;8.934;2023-07-13T02:12:15;2.50;;;2.30;;
67595;SDS011;54410;48.694;8.934;2023-07-13T02:14:41;2.58;;;2.45;;
67595;SDS011;54410;48.694;8.934;2023-07-13T02:17:09;2.40;;;2.28;;
67595;SDS011;54410;48.694;8.934;2023-07-13T02:19:35;2.35;;;2.20;;
67595;SDS011;54410;48.694;8.934;2023-07-13T02:22:01;5.07;;;3.00;;
67595;SDS011;54410;48.694;8.934;2023-07-13T02:24:27;4.63;;;2.40;;
67595;SDS011;54410;48.694;8.934;2023-07-13T02:26:53;2.60;;;2.50;;
67595;SDS011;54410;48.694;8.934;2023-07-13T02:29:19;3.10;;;2.70;;
67595;SDS011;54410;48.694;8.934;2023-07-13T02:31:45;2.45;;;2.25;;
67595;SDS011;54410;48.694;8.934;2023-07-13T02:34:11;3.83;;;2.70;;
67595;SDS011;54410;48.694;8.934;2023-07-13T02:36:37;3.50;;;2.70;;
67595;SDS011;54410;48.694;8.934;2023-07-13T02:39:04;2.95;;;2.70;;
67595;SDS011;54410;48.694;8.934;2023-07-13T02:41:30;3.00;;;2.70;;
67595;SDS011;54410;48.694;8.934;2023-07-13T02:43:57;2.60;;;2.40;;
67595;SDS011;54410;48.694;8.934;2023-07-13T02:46:29;2.88;;;2.58;;
67595;SDS011;54410;48.694;8.934;2023-07-13T02:48:55;2.28;;;2.15;;
67595;SDS011;54410;48.694;8.934;2023-07-13T02:51:21;3.00;;;2.80;;
67595;SDS011;54410;48.694;8.934;2023-07-13T02:53:47;6.28;;;2.60;;
67595;SDS011;54410;48.694;8.934;2023-07-13T02:56:13;2.78;;;2.58;;
67595;SDS011;54410;48.694;8.934;2023-07-13T02:58:39;4.28;;;2.35;;
67595;SDS011;54410;48.694;8.934;2023-07-13T03:01:08;3.08;;;2.80;;
67595;SDS011;54410;48.694;8.934;2023-07-13T03:03:35;2.55;;;2.35;;
67595;SDS011;54410;48.694;8.934;2023-07-13T03:06:02;5.68;;;2.72;;
67595;SDS011;54410;48.694;8.934;2023-07-13T03:08:30;4.88;;;2.65;;
67595;SDS011;54410;48.694;8.934;2023-07-13T03:13:51;2.33;;;2.17;;
67595;SDS011;54410;48.694;8.934;2023-07-13T03:16:17;2.60;;;2.40;;
67595;SDS011;54410;48.694;8.934;2023-07-13T03:18:44;2.33;;;2.20;;
67595;SDS011;54410;48.694;8.934;2023-07-13T03:21:10;2.45;;;2.22;;
67595;SDS011;54410;48.694;8.934;2023-07-13T03:23:36;4.32;;;2.60;;
67595;SDS011;54410;48.694;8.934;2023-07-13T03:26:03;3.47;;;2.40;;
67595;SDS011;54410;48.694;8.934;2023-07-13T03:28:33;3.70;;;2.60;;
67595;SDS011;54410;48.694;8.934;2023-07-13T03:31:03;4.38;;;2.88;;
67595;SDS011;54410;48.694;8.934;2023-07-13T03:33:29;2.85;;;2.75;;
67595;SDS011;54410;48.694;8.934;2023-07-13T03:35:56;2.70;;;2.50;;
67595;SDS011;54410;48.694;8.934;2023-07-13T03:38:21;3.60;;;3.20;;
67595;SDS011;54410;48.694;8.934;2023-07-13T03:40:47;2.95;;;2.50;;
67595;SDS011;54410;48.694;8.934;2023-07-13T03:43:14;3.40;;;3.10;;
67595;SDS011;54410;48.694;8.934;2023-07-13T03:45:40;3.38;;;2.88;;
67595;SDS011;54410;48.694;8.934;2023-07-13T03:48:06;5.57;;;3.03;;
67595;SDS011;54410;48.694;8.934;2023-07-13T03:50:31;3.20;;;2.90;;
67595;SDS011;54410;48.694;8.934;2023-07-13T03:52:58;3.05;;;2.38;;
67595;SDS011;54410;48.694;8.934;2023-07-13T03:55:24;3.08;;;2.88;;
67595;SDS011;54410;48.694;8.934;2023-07-13T03:57:57;3.70;;;2.53;;
67595;SDS011;54410;48.694;8.934;2023-07-13T04:00:24;2.92;;;2.72;;
67595;SDS011;54410;48.694;8.934;2023-07-13T04:02:50;2.85;;;2.65;;
67595;SDS011;54410;48.694;8.934;2023-07-13T04:05:16;3.25;;;2.60;;
67595;SDS011;54410;48.694;8.934;2023-07-13T04:07:42;2.83;;;2.35;;
67595;SDS011;54410;48.694;8.934;2023-07-13T04:10:08;3.90;;;2.22;;
67595;SDS011;54410;48.694;8.934;2023-07-13T04:12:34;3.78;;;2.90;;
67595;SDS011;54410;48.694;8.934;2023-07-13T04:15:00;3.05;;;2.53;;
67595;SDS011;54410;48.694;8.934;2023-07-13T04:17:26;2.83;;;2.40;;
67595;SDS011;54410;48.694;8.934;2023-07-13T04:19:51;2.60;;;2.40;;
67595;SDS011;54410;48.694;8.934;2023-07-13T04:22:17;2.45;;;2.35;;
67595;SDS011;54410;48.694;8.934;2023-07-13T04:24:43;4.40;;;2.45;;
67595;SDS011;54410;48.694;8.934;2023-07-13T04:27:09;2.67;;;2.53;;
67595;SDS011;54410;48.694;8.934;2023-07-13T04:29:35;2.92;;;2.72;;
67595;SDS011;54410;48.694;8.934;2023-07-13T04:32:01;2.88;;;2.60;;
67595;SDS011;54410;48.694;8.934;2023-07-13T04:34:27;3.50;;;2.70;;
67595;SDS011;54410;48.694;8.934;2023-07-13T04:36:53;6.45;;;2.40;;
67595;SDS011;54410;48.694;8.934;2023-07-13T04:39:19;3.03;;;2.83;;
67595;SDS011;54410;48.694;8.934;2023-07-13T04:41:45;3.72;;;2.97;;
67595;SDS011;54410;48.694;8.934;2023-07-13T04:44:11;3.22;;;2.50;;
67595;SDS011;54410;48.694;8.934;2023-07-13T04:46:37;3.10;;;2.88;;
67595;SDS011;54410;48.694;8.934;2023-07-13T04:49:03;2.92;;;2.72;;
67595;SDS011;54410;48.694;8.934;2023-07-13T04:51:29;3.08;;;2.78;;
67595;SDS011;54410;48.694;8.934;2023-07-13T04:53:56;3.00;;;2.60;;
67595;SDS011;54410;48.694;8.934;2023-07-13T04:56:21;4.05;;;2.80;;
67595;SDS011;54410;48.694;8.934;2023-07-13T04:58:47;2.90;;;2.63;;
67595;SDS011;54410;48.694;8.934;2023-07-13T05:01:13;2.50;;;2.30;;
67595;SDS011;54410;48.694;8.934;2023-07-13T05:03:39;3.97;;;2.47;;
67595;SDS011;54410;48.694;8.934;2023-07-13T05:06:06;4.50;;;2.63;;
67595;SDS011;54410;48.694;8.934;2023-07-13T05:08:35;2.95;;;2.45;;
67595;SDS011;54410;48.694;8.934;2023-07-13T05:11:01;4.30;;;2.47;;
67595;SDS011;54410;48.694;8.934;2023-07-13T05:13:27;2.40;;;2.20;;
67595;SDS011;54410;48.694;8.934;2023-07-13T05:15:57;2.58;;;2.38;;
67595;SDS011;54410;48.694;8.934;2023-07-13T05:18:23;4.05;;;2.92;;
67595;SDS011;54410;48.694;8.934;2023-07-13T05:20:58;2.55;;;2.35;;
67595;SDS011;54410;48.694;8.934;2023-07-13T05:23:25;3.22;;;2.60;;
67595;SDS011;54410;48.694;8.934;2023-07-13T05:25:52;2.97;;;2.78;;
67595;SDS011;54410;48.694;8.934;2023-07-13T05:28:18;4.45;;;2.67;;
67595;SDS011;54410;48.694;8.934;2023-07-13T05:30:47;3.70;;;2.92;;
67595;SDS011;54410;48.694;8.934;2023-07-13T05:33:13;3.05;;;2.72;;
67595;SDS011;54410;48.694;8.934;2023-07-13T05:35:39;3.65;;;2.83;;
67595;SDS011;54410;48.694;8.934;2023-07-13T05:38:05;4.10;;;2.90;;
67595;SDS011;54410;48.694;8.934;2023-07-13T05:40:31;4.47;;;2.90;;
67595;SDS011;54410;48.694;8.934;2023-07-13T05:42:57;3.22;;;2.97;;
67595;SDS011;54410;48.694;8.934;2023-07-13T05:45:23;3.63;;;3.33;;
67595;SDS011;54410;48.694;8.934;2023-07-13T05:47:50;3.70;;;3.38;;
67595;SDS011;54410;48.694;8.934;2023-07-13T05:50:16;6.05;;;3.47;;
67595;SDS011;54410;48.694;8.934;2023-07-13T05:52:42;4.75;;;4.45;;
67595;SDS011;54410;48.694;8.934;2023-07-13T05:55:08;5.72;;;5.45;;
67595;SDS011;54410;48.694;8.934;2023-07-13T05:57:34;23.77;;;22.58;;
67595;SDS011;54410;48.694;8.934;2023-07-13T06:00:00;24.20;;;22.98;;
67595;SDS011;54410;48.694;8.934;2023-07-13T06:02:27;20.88;;;19.92;;
67595;SDS011;54410;48.694;8.934;2023-07-13T06:04:52;4.60;;;4.22;;
67595;SDS011;54410;48.694;8.934;2023-07-13T06:07:18;3.58;;;2.50;;
67595;SDS011;54410;48.694;8.934;2023-07-13T06:09:44;1.75;;;1.65;;
67595;SDS011;54410;48.694;8.934;2023-07-13T06:12:10;3.40;;;1.80;;
67595;SDS011;54410;48.694;8.934;2023-07-13T06:14:36;3.55;;;1.63;;
67595;SDS011;54410;48.694;8.934;2023-07-13T06:17:02;1.42;;;1.33;;
67595;SDS011;54410;48.694;8.934;2023-07-13T06:19:28;1.60;;;1.50;;
67595;SDS011;54410;48.694;8.934;2023-07-13T06:21:54;4.43;;;1.38;;
67595;SDS011;54410;48.694;8.934;2023-07-13T06:24:21;2.33;;;1.38;;
67595;SDS011;54410;48.694;8.934;2023-07-13T06:26:47;4.70;;;1.65;;
67595;SDS011;54410;48.694;8.934;2023-07-13T06:29:13;2.50;;;1.70;;
67595;SDS011;54410;48.694;8.934;2023-07-13T06:31:39;4.88;;;1.70;;
67595;SDS011;54410;48.694;8.934;2023-07-13T06:34:05;1.70;;;1.42;;
67595;SDS011;54410;48.694;8.934;2023-07-13T06:36:31;1.60;;;1.50;;
67595;SDS011;54410;48.694;8.934;2023-07-13T06:38:56;2.20;;;1.60;;
67595;SDS011;54410;48.694;8.934;2023-07-13T06:41:22;2.05;;;1.75;;
67595;SDS011;54410;48.694;8.934;2023-07-13T06:43:50;3.28;;;1.50;;
67595;SDS011;54410;48.694;8.934;2023-07-13T06:46:16;2.20;;;1.30;;
67595;SDS011;54410;48.694;8.934;2023-07-13T06:48:43;3.05;;;1.17;;
67595;SDS011;54410;48.694;8.934;2023-07-13T06:51:09;2.75;;;1.30;;
67595;SDS011;54410;48.694;8.934;2023-07-13T06:53:34;4.50;;;1.52;;
67595;SDS011;54410;48.694;8.934;2023-07-13T06:56:00;1.75;;;1.30;;
67595;SDS011;54410;48.694;8.934;2023-07-13T06:58:26;2.47;;;1.20;;
67595;SDS011;54410;48.694;8.934;2023-07-13T07:00:52;1.65;;;1.48;;
67595;SDS011;54410;48.694;8.934;2023-07-13T07:03:18;3.17;;;1.42;;
67595;SDS011;54410;48.694;8.934;2023-07-13T07:05:44;3.25;;;1.30;;
67595;SDS011;54410;48.694;8.934;2023-07-13T07:08:10;1.98;;;1.30;;
67595;SDS011;54410;48.694;8.934;2023-07-13T07:10:36;2.30;;;1.20;;
67595;SDS011;54410;48.694;8.934;2023-07-13T07:13:02;2.85;;;1.40;;
67595;SDS011;54410;48.694;8.934;2023-07-13T07:15:28;1.83;;;1.20;;
67595;SDS011;54410;48.694;8.934;2023-07-13T07:17:54;2.38;;;1.40;;
67595;SDS011;54410;48.694;8.934;2023-07-13T07:20:20;1.77;;;1.30;;
67595;SDS011;54410;48.694;8.934;2023-07-13T07:22:46;1.63;;;1.27;;
67595;SDS011;54410;48.694;8.934;2023-07-13T07:25:12;1.17;;;1.08;;
67595;SDS011;54410;48.694;8.934;2023-07-13T07:27:38;1.45;;;1.23;;
67595;SDS011;54410;48.694;8.934;2023-07-13T07:30:04;1.40;;;1.20;;
67595;SDS011;54410;48.694;8.934;2023-07-13T07:32:31;2.28;;;1.10;;
67595;SDS011;54410;48.694;8.934;2023-07-13T07:34:57;2.40;;;1.00;;
67595;SDS011;54410;48.694;8.934;2023-07-13T07:37:23;1.38;;;1.10;;
67595;SDS011;54410;48.694;8.934;2023-07-13T07:39:48;1.55;;;1.02;;
67595;SDS011;54410;48.694;8.934;2023-07-13T07:42:15;1.92;;;1.10;;
67595;SDS011;54410;48.694;8.934;2023-07-13T07:44:41;2.55;;;1.17;;
67595;SDS011;54410;48.694;8.934;2023-07-13T07:47:08;3.33;;;1.10;;
67595;SDS011;54410;48.694;8.934;2023-07-13T07:49:34;2.08;;;1.30;;
67595;SDS011;54410;48.694;8.934;2023-07-13T07:52:00;2.50;;;1.23;;
67595;SDS011;54410;48.694;8.934;2023-07-13T07:54:26;3.35;;;1.20;;
67595;SDS011;54410;48.694;8.934;2023-07-13T07:56:51;2.17;;;1.40;;
67595;SDS011;54410;48.694;8.934;2023-07-13T07:59:17;2.75;;;1.40;;
67595;SDS011;54410;48.694;8.934;2023-07-13T08:01:43;2.70;;;1.05;;
67595;SDS011;54410;48.694;8.934;2023-07-13T08:04:11;1.40;;;1.30;;
67595;SDS011;54410;48.694;8.934;2023-07-13T08:06:37;2.90;;;1.33;;
67595;SDS011;54410;48.694;8.934;2023-07-13T08:09:02;3.13;;;1.10;;
67595;SDS011;54410;48.694;8.934;2023-07-13T08:11:29;2.20;;;1.10;;
67595;SDS011;54410;48.694;8.934;2023-07-13T08:13:55;1.95;;;1.85;;
67595;SDS011;54410;48.694;8.934;2023-07-13T08:16:21;1.52;;;1.13;;
67595;SDS011;54410;48.694;8.934;2023-07-13T08:18:47;1.65;;;1.20;;
67595;SDS011;54410;48.694;8.934;2023-07-13T08:21:12;2.55;;;1.02;;
67595;SDS011;54410;48.694;8.934;2023-07-13T08:23:38;2.42;;;1.20;;
67595;SDS011;54410;48.694;8.934;2023-07-13T08:26:04;1.95;;;1.08;;
67595;SDS011;54410;48.694;8.934;2023-07-13T08:28:30;1.42;;;1.13;;
67595;SDS011;54410;48.694;8.934;2023-07-13T08:31:01;3.63;;;1.38;;
67595;SDS011;54410;48.694;8.934;2023-07-13T08:33:30;2.67;;;1.20;;
67595;SDS011;54410;48.694;8.934;2023-07-13T08:35:56;1.27;;;1.02;;
67595;SDS011;54410;48.694;8.934;2023-07-13T08:38:22;1.30;;;1.02;;
67595;SDS011;54410;48.694;8.934;2023-07-13T08:40:55;3.50;;;1.20;;
67595;SDS011;54410;48.694;8.934;2023-07-13T08:43:26;3.75;;;1.20;;
67595;SDS011;54410;48.694;8.934;2023-07-13T08:46:05;2.00;;;1.30;;
67595;SDS011;54410;48.694;8.934;2023-07-13T08:48:44;3.90;;;1.30;;
67595;SDS011;54410;48.694;8.934;2023-07-13T08:54:02;2.35;;;1.30;;
67595;SDS011;54410;48.694;8.934;2023-07-13T08:56:30;1.92;;;1.08;;
67595;SDS011;54410;48.694;8.934;2023-07-13T08:59:05;2.08;;;1.13;;
67595;SDS011;54410;48.694;8.934;2023-07-13T09:01:45;6.68;;;1.40;;
67595;SDS011;54410;48.694;8.934;2023-07-13T09:04:15;1.20;;;1.10;;
67595;SDS011;54410;48.694;8.934;2023-07-13T09:06:55;2.75;;;1.27;;
67595;SDS011;54410;48.694;8.934;2023-07-13T09:09:33;2.00;;;1.38;;
67595;SDS011;54410;48.694;8.934;2023-07-13T09:14:56;1.85;;;1.20;;
67595;SDS011;54410;48.694;8.934;2023-07-13T09:17:25;2.38;;;1.55;;
67595;SDS011;54410;48.694;8.934;2023-07-13T09:19:59;4.07;;;1.70;;
67595;SDS011;54410;48.694;8.934;2023-07-13T09:22:39;3.90;;;2.05;;
67595;SDS011;54410;48.694;8.934;2023-07-13T09:25:22;2.00;;;1.77;;
67595;SDS011;54410;48.694;8.934;2023-07-13T09:27:49;1.98;;;1.88;;
67595;SDS011;54410;48.694;8.934;2023-07-13T09:31:03;1.77;;;1.52;;
67595;SDS011;54410;48.694;8.934;2023-07-13T09:33:25;4.78;;;1.75;;
67595;SDS011;54410;48.694;8.934;2023-07-13T09:35:54;3.20;;;1.70;;
67595;SDS011;54410;48.694;8.934;2023-07-13T09:38:22;2.53;;;1.63;;
67595;SDS011;54410;48.694;8.934;2023-07-13T09:43:38;2.13;;;1.90;;
67595;SDS011;54410;48.694;8.934;2023-07-13T09:46:04;2.92;;;1.40;;
67595;SDS011;54410;48.694;8.934;2023-07-13T09:48:33;2.45;;;1.20;;
67595;SDS011;54410;48.694;8.934;2023-07-13T09:51:06;1.55;;;1.45;;
67595;SDS011;54410;48.694;8.934;2023-07-13T09:53:38;3.63;;;1.50;;
67595;SDS011;54410;48.694;8.934;2023-07-13T09:56:04;1.83;;;1.35;;
67595;SDS011;54410;48.694;8.934;2023-07-13T09:58:47;1.35;;;1.20;;
67595;SDS011;54410;48.694;8.934;2023-07-13T10:01:13;2.65;;;1.38;;
67595;SDS011;54410;48.694;8.934;2023-07-13T10:03:39;1.73;;;1.63;;
67595;SDS011;54410;48.694;8.934;2023-07-13T10:06:18;1.75;;;1.65;;
67595;SDS011;54410;48.694;8.934;2023-07-13T10:08:47;3.95;;;1.40;;
67595;SDS011;54410;48.694;8.934;2023-07-13T10:11:20;2.28;;;1.30;;
67595;SDS011;54410;48.694;8.934;2023-07-13T10:16:21;1.63;;;1.17;;
67595;SDS011;54410;48.694;8.934;2023-07-13T10:18:55;1.48;;;1.17;;
67595;SDS011;54410;48.694;8.934;2023-07-13T10:21:23;1.83;;;1.20;;
67595;SDS011;54410;48.694;8.934;2023-07-13T10:23:57;2.15;;;1.20;;
67595;SDS011;54410;48.694;8.934;2023-07-13T10:26:31;4.40;;;1.40;;
67595;SDS011;54410;48.694;8.934;2023-07-13T10:29:01;1.50;;;1.40;;
67595;SDS011;54410;48.694;8.934;2023-07-13T10:31:29;2.90;;;1.63;;
67595;SDS011;54410;48.694;8.934;2023-07-13T10:33:56;3.08;;;1.70;;
67595;SDS011;54410;48.694;8.934;2023-07-13T10:36:30;1.70;;;1.60;;
67595;SDS011;54410;48.694;8.934;2023-07-13T10:39:02;3.20;;;1.65;;
67595;SDS011;54410;48.694;8.934;2023-07-13T10:41:29;2.97;;;1.60;;
67595;SDS011;54410;48.694;8.934;2023-07-13T10:43:57;1.98;;;1.88;;
67595;SDS011;54410;48.694;8.934;2023-07-13T10:46:24;3.40;;;1.90;;
67595;SDS011;54410;48.694;8.934;2023-07-13T10:48:54;1.58;;;1.48;;
67595;SDS011;54410;48.694;8.934;2023-07-13T10:51:22;4.15;;;1.80;;
67595;SDS011;54410;48.694;8.934;2023-07-13T10:53:48;2.13;;;1.42;;
67595;SDS011;54410;48.694;8.934;2023-07-13T10:56:41;2.35;;;1.75;;
67595;SDS011;54410;48.694;8.934;2023-07-13T10:59:12;2.72;;;1.90;;
67595;SDS011;54410;48.694;8.934;2023-07-13T11:01:41;1.88;;;1.30;;
67595;SDS011;54410;48.694;8.934;2023-07-13T11:04:20;1.88;;;1.23;;
67595;SDS011;54410;48.694;8.934;2023-07-13T11:06:50;4.03;;;1.48;;
67595;SDS011;54410;48.694;8.934;2023-07-13T11:09:19;2.13;;;1.50;;
67595;SDS011;54410;48.694;8.934;2023-07-13T11:11:45;1.48;;;1.35;;
67595;SDS011;54410;48.694;8.934;2023-07-13T11:15:02;1.45;;;1.35;;
67595;SDS011;54410;48.694;8.934;2023-07-13T11:19:50;1.45;;;1.35;;
67595;SDS011;54410;48.694;8.934;2023-07-13T11:22:21;6.75;;;1.58;;
67595;SDS011;54410;48.694;8.934;2023-07-13T11:24:53;2.65;;;1.63;;
67595;SDS011;54410;48.694;8.934;2023-07-13T11:27:33;2.22;;;1.65;;
67595;SDS011;54410;48.694;8.934;2023-07-13T11:35:31;6.55;;;3.22;;
67595;SDS011;54410;48.694;8.934;2023-07-13T11:38:01;2.33;;;1.90;;
67595;SDS011;54410;48.694;8.934;2023-07-13T11:40:27;4.45;;;1.77;;
67595;SDS011;54410;48.694;8.934;2023-07-13T11:43:01;3.58;;;1.70;;
67595;SDS011;54410;48.694;8.934;2023-07-13T11:45:27;4.00;;;1.75;;
67595;SDS011;54410;48.694;8.934;2023-07-13T11:47:53;2.90;;;1.80;;
67595;SDS011;54410;48.694;8.934;2023-07-13T11:50:22;3.42;;;1.70;;
67595;SDS011;54410;48.694;8.934;2023-07-13T11:52:50;1.85;;;1.70;;
67595;SDS011;54410;48.694;8.934;2023-07-13T11:55:19;4.07;;;2.08;;
67595;SDS011;54410;48.694;8.934;2023-07-13T11:57:47;3.05;;;1.73;;
67595;SDS011;54410;48.694;8.934;2023-07-13T12:00:17;2.80;;;1.67;;
67595;SDS011;54410;48.694;8.934;2023-07-13T12:02:46;1.95;;;1.83;;
67595;SDS011;54410;48.694;8.934;2023-07-13T12:05:17;2.15;;;1.98;;
67595;SDS011;54410;48.694;8.934;2023-07-13T12:07:45;5.15;;;1.73;;
67595;SDS011;54410;48.694;8.934;2023-07-13T12:10:21;3.80;;;1.88;;
67595;SDS011;54410;48.694;8.934;2023-07-13T12:12:55;3.45;;;2.13;;
67595;SDS011;54410;48.694;8.934;2023-07-13T12:18:14;5.30;;;1.80;;
67595;SDS011;54410;48.694;8.934;2023-07-13T12:20:41;3.38;;;2.00;;
67595;SDS011;54410;48.694;8.934;2023-07-13T12:26:03;3.05;;;2.40;;
67595;SDS011;54410;48.694;8.934;2023-07-13T12:28:33;1.40;;;1.30;;
67595;SDS011;54410;48.694;8.934;2023-07-13T12:31:03;2.83;;;1.85;;
67595;SDS011;54410;48.694;8.934;2023-07-13T12:33:30;1.85;;;1.75;;
67595;SDS011;54410;48.694;8.934;2023-07-13T12:35:57;2.38;;;1.70;;
67595;SDS011;54410;48.694;8.934;2023-07-13T12:38:27;2.00;;;1.70;;
67595;SDS011;54410;48.694;8.934;2023-07-13T12:40:52;2.03;;;1.83;;
67595;SDS011;54410;48.694;8.934;2023-07-13T12:43:19;2.25;;;1.70;;
67595;SDS011;54410;48.694;8.934;2023-07-13T12:45:56;1.63;;;1.52;;
67595;SDS011;54410;48.694;8.934;2023-07-13T12:48:22;2.20;;;1.50;;
67595;SDS011;54410;48.694;8.934;2023-07-13T12:50:49;2.88;;;1.88;;
67595;SDS011;54410;48.694;8.934;2023-07-13T12:53:50;1.83;;;1.60;;
67595;SDS011;54410;48.694;8.934;2023-07-13T12:56:09;1.83;;;1.73;;
67595;SDS011;54410;48.694;8.934;2023-07-13T12:58:43;2.35;;;1.95;;
67595;SDS011;54410;48.694;8.934;2023-07-13T13:01:12;2.40;;;1.80;;
67595;SDS011;54410;48.694;8.934;2023-07-13T13:03:39;2.38;;;1.60;;
67595;SDS011;54410;48.694;8.934;2023-07-13T13:06:21;1.55;;;1.45;;
67595;SDS011;54410;48.694;8.934;2023-07-13T13:08:49;2.50;;;1.70;;
67595;SDS011;54410;48.694;8.934;2023-07-13T13:11:16;2.13;;;2.00;;
67595;SDS011;54410;48.694;8.934;2023-07-13T13:13:43;2.72;;;1.98;;
67595;SDS011;54410;48.694;8.934;2023-07-13T13:16:12;1.88;;;1.70;;
67595;SDS011;54410;48.694;8.934;2023-07-13T13:18:40;1.80;;;1.70;;
67595;SDS011;54410;48.694;8.934;2023-07-13T13:21:06;1.60;;;1.50;;
67595;SDS011;54410;48.694;8.934;2023-07-13T13:23:32;2.13;;;1.60;;
67595;SDS011;54410;48.694;8.934;2023-07-13T13:25:58;3.85;;;1.75;;
67595;SDS011;54410;48.694;8.934;2023-07-13T13:28:24;2.15;;;1.67;;
67595;SDS011;54410;48.694;8.934;2023-07-13T13:30:50;2.83;;;1.70;;
67595;SDS011;54410;48.694;8.934;2023-07-13T13:33:17;2.08;;;1.58;;
67595;SDS011;54410;48.694;8.934;2023-07-13T13:35:44;3.60;;;1.63;;
67595;SDS011;54410;48.694;8.934;2023-07-13T13:38:20;1.95;;;1.45;;
67595;SDS011;54410;48.694;8.934;2023-07-13T13:40:48;2.08;;;1.60;;
67595;SDS011;54410;48.694;8.934;2023-07-13T13:43:18;3.15;;;1.80;;
67595;SDS011;54410;48.694;8.934;2023-07-13T13:45:50;2.00;;;1.70;;
67595;SDS011;54410;48.694;8.934;2023-07-13T13:48:17;2.03;;;1.80;;
67595;SDS011;54410;48.694;8.934;2023-07-13T13:50:44;2.00;;;1.80;;
67595;SDS011;54410;48.694;8.934;2023-07-13T13:53:11;1.88;;;1.77;;
67595;SDS011;54410;48.694;8.934;2023-07-13T13:55:38;1.70;;;1.60;;
67595;SDS011;54410;48.694;8.934;2023-07-13T13:58:04;2.22;;;1.95;;
67595;SDS011;54410;48.694;8.934;2023-07-13T14:00:31;4.82;;;1.83;;
67595;SDS011;54410;48.694;8.934;2023-07-13T14:02:57;2.05;;;1.70;;
67595;SDS011;54410;48.694;8.934;2023-07-13T14:05:26;2.67;;;2.20;;
67595;SDS011;54410;48.694;8.934;2023-07-13T14:07:52;2.65;;;1.88;;
67595;SDS011;54410;48.694;8.934;2023-07-13T14:10:19;2.28;;;2.10;;
67595;SDS011;54410;48.694;8.934;2023-07-13T14:12:51;2.33;;;2.00;;
67595;SDS011;54410;48.694;8.934;2023-07-13T14:15:26;2.17;;;1.90;;
67595;SDS011;54410;48.694;8.934;2023-07-13T14:17:52;1.60;;;1.50;;
67595;SDS011;54410;48.694;8.934;2023-07-13T14:20:19;2.45;;;1.80;;
67595;SDS011;54410;48.694;8.934;2023-07-13T14:22:47;5.05;;;1.98;;
67595;SDS011;54410;48.694;8.934;2023-07-13T14:25:15;1.92;;;1.40;;
67595;SDS011;54410;48.694;8.934;2023-07-13T14:27:44;2.42;;;1.70;;
67595;SDS011;54410;48.694;8.934;2023-07-13T14:30:18;3.97;;;1.80;;
67595;SDS011;54410;48.694;8.934;2023-07-13T14:32:44;2.40;;;1.60;;
67595;SDS011;54410;48.694;8.934;2023-07-13T14:35:14;1.83;;;1.55;;
67595;SDS011;54410;48.694;8.934;2023-07-13T14:37:40;2.67;;;1.90;;
67595;SDS011;54410;48.694;8.934;2023-07-13T14:40:17;3.17;;;1.90;;
67595;SDS011;54410;48.694;8.934;2023-07-13T14:42:45;2.30;;;1.92;;
67595;SDS011;54410;48.694;8.934;2023-07-13T14:45:18;2.17;;;1.60;;
67595;SDS011;54410;48.694;8.934;2023-07-13T14:47:45;2.17;;;1.65;;
67595;SDS011;54410;48.694;8.934;2023-07-13T14:50:19;2.35;;;2.08;;
67595;SDS011;54410;48.694;8.934;2023-07-13T14:52:51;3.17;;;2.08;;
67595;SDS011;54410;48.694;8.934;2023-07-13T14:55:18;3.83;;;1.88;;
67595;SDS011;54410;48.694;8.934;2023-07-13T14:57:44;5.57;;;1.60;;
67595;SDS011;54410;48.694;8.934;2023-07-13T15:00:20;3.25;;;2.10;;
67595;SDS011;54410;48.694;8.934;2023-07-13T15:02:48;3.28;;;1.90;;
67595;SDS011;54410;48.694;8.934;2023-07-13T15:05:21;3.17;;;1.85;;
67595;SDS011;54410;48.694;8.934;2023-07-13T15:07:48;2.15;;;1.95;;
67595;SDS011;54410;48.694;8.934;2023-07-13T15:10:18;2.45;;;2.00;;
67595;SDS011;54410;48.694;8.934;2023-07-13T15:12:45;3.58;;;2.13;;
67595;SDS011;54410;48.694;8.934;2023-07-13T15:15:11;3.08;;;2.10;;
67595;SDS011;54410;48.694;8.934;2023-07-13T15:17:39;2.00;;;1.90;;
67595;SDS011;54410;48.694;8.934;2023-07-13T15:20:11;2.83;;;2.20;;
67595;SDS011;54410;48.694;8.934;2023-07-13T15:22:41;1.80;;;1.70;;
67595;SDS011;54410;48.694;8.934;2023-07-13T15:25:11;2.50;;;1.80;;